Time;durP1;ratioP1;P1;durP2;ratioP2;P2;SDS_P1;SDS_P2;PMS_P1;PMS_P2;Temp;Humidity;BMP_temperature;BMP_pressure;BME280_temperature;BME280_humidity;BME280_pressure;Samples;Min_cycle;Max_cycle;Signal;HPM_P1;HPM_P2
2024/01/08 00:01:16;;;;;;;;;;;;;;;;;;5087195;28;19969;-82
2024/01/08 00:03:43;;;;;;;;;;;;;;;;;;5089102;28;19920;-83
2024/01/08 00:06:09;;;;;;;;;;;;;;;;;;5085948;28;19917;-83
2024/01/08 00:08:34;;;;;;;;;;;;;;;;;;5079906;28;19969;-83
2024/01/08 00:11:00;;;;;;;;;;;;;;;;;;5084838;28;19912;-84
2024/01/08 00:13:26;;;;;;;;;;;;;;;;;;5086116;28;19916;-84
2024/01/08 00:15:52;;;;;;;;;;;;;;;;;;5083673;28;19912;-84
2024/01/08 00:18:19;;;;;;;;;;;;;;;;;;5087783;28;19912;-84
2024/01/08 00:20:45;;;;;;;;;;;;;;;;;;5088031;28;19916;-84
2024/01/08 00:23:11;;;;;;;;;;;;;;;;;;5088307;28;19920;-84
2024/01/08 00:25:37;;;;;;;;;;;;;;;;;;5088170;28;19924;-84
2024/01/08 00:28:04;;;;;;;;;;;;;;;;;;5086170;28;19958;-84
2024/01/08 00:30:29;;;;;;;;;;;;;;;;;;5081050;28;19920;-83
2024/01/08 00:32:55;;;;;;;;;;;;;;;;;;5076206;28;19934;-84
2024/01/08 00:35:22;;;;;;;;;;;;;;;;;;5086712;28;19912;-84
2024/01/08 00:37:47;;;;;;;;;;;;;;;;;;5081178;28;19912;-83
2024/01/08 00:40:13;;;;;;;;;;;;;;;;;;5080744;28;19916;-84
2024/01/08 00:42:39;;;;;;;;;;;;;;;;;;5087606;28;19912;-84
2024/01/08 00:45:05;;;;;;;;;;;;;;;;;;5087430;28;20680;-83
2024/01/08 00:47:31;;;;;;;;;;;;;;;;;;5085464;28;19916;-83
2024/01/08 00:49:57;;;;;;;;;;;;;;;;;;5086884;28;20004;-82
2024/01/08 00:52:23;;;;;;;;;;;;;;;;;;5088191;28;19912;-81
2024/01/08 00:54:48;;;;;;;;;;;;;;;;;;5084792;28;19964;-83
2024/01/08 00:57:14;;;;;;;;;;;;;;;;;;5086883;28;20382;-82
2024/01/08 00:59:40;;;;;;;;;;;;;;;;;;5088589;28;20363;-83
2024/01/08 01:02:06;;;;;;;;;;;;;;;;;;5079777;28;19912;-83
2024/01/08 01:04:32;;;;;;;;;;;;;;;;;;5086248;28;20031;-83
2024/01/08 01:06:58;;;;;;;;;;;;;;;;;;5085382;28;19915;-83
2024/01/08 01:09:24;;;;;;;;;;;;;;;;;;5073697;28;19935;-83
2024/01/08 01:11:50;;;;;;;;;;;;;;;;;;5077289;28;20375;-83
2024/01/08 01:14:16;;;;;;;;;;;;;;;;;;5080841;28;20376;-83
2024/01/08 01:16:41;;;;;;;;;;;;;;;;;;5086685;28;20469;-84
2024/01/08 01:19:07;;;;;;;;;;;;;;;;;;5086780;28;20523;-83
2024/01/08 01:21:33;;;;;;;;;;;;;;;;;;5086561;28;20260;-83
2024/01/08 01:23:59;;;;;;;;;;;;;;;;;;5087277;28;19967;-83
2024/01/08 01:26:25;;;;;;;;;;;;;;;;;;5081939;28;19972;-84
2024/01/08 01:28:51;;;;;;;;;;;;;;;;;;5085980;28;19923;-83
2024/01/08 01:31:17;;;;;;;;;;;;;;;;;;5078008;28;19912;-83
2024/01/08 01:33:43;;;;;;;;;;;;;;;;;;5080520;28;19912;-83
2024/01/08 01:36:09;;;;;;;;;;;;;;;;;;5083452;28;19913;-83
2024/01/08 01:38:35;;;;;;;;;;;;;;;;;;5088368;28;19912;-83
2024/01/08 01:41:01;;;;;;;;;;;;;;;;;;5082846;28;19955;-83
2024/01/08 01:43:26;;;;;;;;;;;;;;;;;;5082447;28;19965;-83
2024/01/08 01:45:52;;;;;;;;;;;;;;;;;;5082589;28;20374;-83
2024/01/08 01:48:18;;;;;;;;;;;;;;;;;;5084332;28;20389;-83
2024/01/08 01:50:44;;;;;;;;;;;;;;;;;;5085478;28;19981;-83
2024/01/08 01:53:10;;;;;;;;;;;;;;;;;;5087346;28;20309;-83
2024/01/08 01:55:36;;;;;;;;;;;;;;;;;;5087344;28;19912;-84
2024/01/08 01:58:02;;;;;;;;;;;;;;;;;;5075018;28;19916;-83
2024/01/08 02:00:28;;;;;;;;;;;;;;;;;;5087004;28;19912;-83
2024/01/08 02:02:53;;;;;;;;;;;;;;;;;;5088465;28;19931;-83
2024/01/08 02:05:19;;;;;;;;;;;;;;;;;;5086424;28;19924;-83
2024/01/08 02:07:45;;;;;;;;;;;;;;;;;;5091300;28;19917;-83
2024/01/08 02:10:11;;;;;;;;;;;;;;;;;;5075207;28;19970;-84
2024/01/08 02:12:37;;;;;;;;;;;;;;;;;;5086834;28;19916;-84
2024/01/08 02:15:04;;;;;;;;;;;;;;;;;;5085967;28;19923;-84
2024/01/08 02:17:30;;;;;;;;;;;;;;;;;;5090548;28;20022;-84
2024/01/08 02:19:56;;;;;;;;;;;;;;;;;;5091214;28;19999;-84
2024/01/08 02:22:22;;;;;;;;;;;;;;;;;;5087041;28;19973;-84
2024/01/08 02:24:48;;;;;;;;;;;;;;;;;;5083168;28;19942;-85
2024/01/08 02:27:14;;;;;;;;;;;;;;;;;;5090118;28;19994;-84
2024/01/08 02:29:40;;;;;;;;;;;;;;;;;;5084092;28;19916;-84
2024/01/08 02:32:07;;;;;;;;;;;;;;;;;;5083505;28;19973;-83
2024/01/08 02:34:33;;;;;;;;;;;;;;;;;;5089209;28;19934;-84
2024/01/08 02:36:59;;;;;;;;;;;;;;;;;;5085198;28;19912;-83
2024/01/08 02:39:24;;;;;;;;;;;;;;;;;;5087676;28;19916;-84
2024/01/08 02:41:50;;;;;;;;;;;;;;;;;;5089221;28;19922;-84
2024/01/08 02:44:16;;;;;;;;;;;;;;;;;;5084780;28;19931;-84
2024/01/08 02:46:42;;;;;;;;;;;;;;;;;;5090260;28;20419;-84
2024/01/08 02:49:08;;;;;;;;;;;;;;;;;;5090279;28;19913;-84
2024/01/08 02:51:34;;;;;;;;;;;;;;;;;;5091244;28;19919;-84
2024/01/08 02:53:59;;;;;;;;;;;;;;;;;;5087009;28;20003;-84
2024/01/08 02:56:25;;;;;;;;;;;;;;;;;;5086764;28;20458;-84
2024/01/08 02:58:51;;;;;;;;;;;;;;;;;;5078444;28;20377;-84
2024/01/08 03:01:17;;;;;;;;;;;;;;;;;;5081532;28;19947;-84
2024/01/08 03:03:43;;;;;;;;;;;;;;;;;;5088043;28;19927;-84
2024/01/08 03:06:09;;;;;;;;;;;;;;;;;;5084589;28;20015;-85
2024/01/08 03:08:35;;;;;;;;;;;;;;;;;;5088319;28;19918;-84
2024/01/08 03:11:01;;;;;;;;;;;;;;;;;;5085742;28;19928;-84
2024/01/08 03:13:26;;;;;;;;;;;;;;;;;;5089619;28;19916;-84
2024/01/08 03:15:52;;;;;;;;;;;;;;;;;;5080592;28;19935;-84
2024/01/08 03:18:18;;;;;;;;;;;;;;;;;;5086042;28;19917;-84
2024/01/08 03:20:44;;;;;;;;;;;;;;;;;;5089951;28;20002;-84
2024/01/08 03:23:10;;;;;;;;;;;;;;;;;;5087230;28;19923;-84
2024/01/08 03:25:36;;;;;;;;;;;;;;;;;;5084160;28;19966;-84
2024/01/08 03:28:02;;;;;;;;;;;;;;;;;;5090152;28;19912;-84
2024/01/08 03:30:28;;;;;;;;;;;;;;;;;;5085927;28;19918;-84
2024/01/08 03:32:54;;;;;;;;;;;;;;;;;;5086278;28;19912;-84
2024/01/08 03:35:20;;;;;;;;;;;;;;;;;;5085835;28;19916;-84
2024/01/08 03:37:46;;;;;;;;;;;;;;;;;;5086215;28;19955;-85
2024/01/08 03:40:11;;;;;;;;;;;;;;;;;;5089829;28;20283;-84
2024/01/08 03:42:37;;;;;;;;;;;;;;;;;;5088580;28;19924;-84
2024/01/08 03:45:03;;;;;;;;;;;;;;;;;;5089054;28;19916;-85
2024/01/08 03:47:29;;;;;;;;;;;;;;;;;;5084525;28;19958;-84
2024/01/08 03:49:55;;;;;;;;;;;;;;;;;;5086931;28;20359;-84
2024/01/08 03:52:20;;;;;;;;;;;;;;;;;;5088064;28;20278;-84
2024/01/08 03:54:46;;;;;;;;;;;;;;;;;;5089977;28;20434;-83
2024/01/08 03:57:12;;;;;;;;;;;;;;;;;;5087199;28;19982;-84
2024/01/08 03:59:38;;;;;;;;;;;;;;;;;;5081935;28;19912;-84
2024/01/08 04:02:04;;;;;;;;;;;;;;;;;;5081939;28;19919;-83
2024/01/08 04:04:30;;;;;;;;;;;;;;;;;;5085623;28;20307;-84
2024/01/08 04:06:56;;;;;;;;;;;;;;;;;;5086343;28;19917;-83
2024/01/08 04:09:22;;;;;;;;;;;;;;;;;;5090148;28;19922;-84
2024/01/08 04:11:48;;;;;;;;;;;;;;;;;;5083123;28;19920;-84
2024/01/08 04:14:14;;;;;;;;;;;;;;;;;;5082805;28;19920;-84
2024/01/08 04:16:40;;;;;;;;;;;;;;;;;;5081854;28;19920;-84
2024/01/08 04:19:05;;;;;;;;;;;;;;;;;;5087477;28;19959;-84
2024/01/08 04:21:31;;;;;;;;;;;;;;;;;;5084567;28;20305;-85
2024/01/08 04:23:57;;;;;;;;;;;;;;;;;;5088666;28;19920;-85
2024/01/08 04:26:25;;;;;;;;;;;;;;;;;;5087657;28;19951;-84
2024/01/08 04:28:51;;;;;;;;;;;;;;;;;;5086042;28;19946;-84
2024/01/08 04:31:17;;;;;;;;;;;;;;;;;;5084840;28;20334;-84
2024/01/08 04:33:43;;;;;;;;;;;;;;;;;;5076461;28;19997;-84
2024/01/08 04:36:09;;;;;;;;;;;;;;;;;;5081399;28;19913;-85
2024/01/08 04:38:35;;;;;;;;;;;;;;;;;;5080019;28;20011;-85
2024/01/08 04:41:01;;;;;;;;;;;;;;;;;;5087326;28;19986;-85
2024/01/08 04:43:27;;;;;;;;;;;;;;;;;;5082771;28;19995;-85
2024/01/08 04:45:53;;;;;;;;;;;;;;;;;;5083590;28;19969;-85
2024/01/08 04:48:19;;;;;;;;;;;;;;;;;;5083445;28;19966;-85
2024/01/08 04:50:45;;;;;;;;;;;;;;;;;;5086284;28;20429;-85
2024/01/08 04:53:11;;;;;;;;;;;;;;;;;;5080267;28;20369;-85
2024/01/08 04:55:36;;;;;;;;;;;;;;;;;;5082629;28;19923;-85
2024/01/08 04:58:02;;;;;;;;;;;;;;;;;;5084074;28;19912;-85
2024/01/08 05:00:29;;;;;;;;;;;;;;;;;;5082860;28;19912;-85
2024/01/08 05:02:55;;;;;;;;;;;;;;;;;;5088408;28;19912;-85
2024/01/08 05:05:21;;;;;;;;;;;;;;;;;;5085910;28;19916;-85
2024/01/08 05:07:47;;;;;;;;;;;;;;;;;;5083216;28;19916;-84
2024/01/08 05:10:13;;;;;;;;;;;;;;;;;;5085948;28;19921;-85
2024/01/08 05:12:38;;;;;;;;;;;;;;;;;;5086399;28;20416;-85
2024/01/08 05:15:04;;;;;;;;;;;;;;;;;;5085207;28;20395;-85
2024/01/08 05:17:30;;;;;;;;;;;;;;;;;;5077394;28;19920;-85
2024/01/08 05:19:56;;;;;;;;;;;;;;;;;;5085425;28;19915;-85
2024/01/08 05:22:22;;;;;;;;;;;;;;;;;;5086248;28;20413;-85
2024/01/08 05:24:48;;;;;;;;;;;;;;;;;;5085780;28;19977;-84
2024/01/08 05:27:14;;;;;;;;;;;;;;;;;;5084150;28;19916;-85
2024/01/08 05:29:39;;;;;;;;;;;;;;;;;;5085404;28;19916;-84
2024/01/08 05:32:05;;;;;;;;;;;;;;;;;;5077657;28;19916;-85
2024/01/08 05:34:31;;;;;;;;;;;;;;;;;;5083433;28;19995;-83
2024/01/08 05:36:57;;;;;;;;;;;;;;;;;;5080439;28;20343;-85
2024/01/08 05:39:23;;;;;;;;;;;;;;;;;;5078555;28;19967;-83
2024/01/08 05:41:49;;;;;;;;;;;;;;;;;;5077685;28;20169;-84
2024/01/08 05:44:14;;;;;;;;;;;;;;;;;;5085272;28;19913;-83
2024/01/08 05:46:40;;;;;;;;;;;;;;;;;;5087289;28;19916;-83
2024/01/08 05:49:06;;;;;;;;;;;;;;;;;;5085373;28;20021;-83
2024/01/08 05:51:32;;;;;;;;;;;;;;;;;;5076440;28;19958;-86
2024/01/08 05:53:58;;;;;;;;;;;;;;;;;;5088448;28;19912;-86
2024/01/08 05:56:24;;;;;;;;;;;;;;;;;;5085891;28;20002;-87
2024/01/08 05:58:50;;;;;;;;;;;;;;;;;;5079303;28;19923;-85
2024/01/08 06:01:17;;;;;;;;;;;;;;;;;;5078246;28;19916;-85
2024/01/08 06:03:43;;;;;;;;;;;;;;;;;;5075389;28;20019;-85
2024/01/08 06:06:09;;;;;;;;;;;;;;;;;;5069313;28;19913;-85
2024/01/08 06:08:37;;;;;;;;;;;;;;;;;;5066153;28;19915;-86
2024/01/08 06:11:03;;;;;;;;;;;;;;;;;;5066258;28;19909;-85
2024/01/08 06:13:29;;;;;;;;;;;;;;;;;;5068301;28;19912;-84
2024/01/08 06:15:55;;;;;;;;;;;;;;;;;;5068469;28;19923;-85
2024/01/08 06:18:21;;;;;;;;;;;;;;;;;;5081373;28;19913;-86
2024/01/08 06:20:46;;;;;;;;;;;;;;;;;;5087895;28;19919;-84
2024/01/08 06:23:12;;;;;;;;;;;;;;;;;;5077252;28;19997;-86
2024/01/08 06:25:42;;;;;;;;;;;;;;;;;;5087781;28;19918;-84
2024/01/08 06:28:07;;;;;;;;;;;;;;;;;;5080081;28;20227;-86
2024/01/08 06:30:33;;;;;;;;;;;;;;;;;;5077876;28;19912;-86
2024/01/08 06:32:59;;;;;;;;;;;;;;;;;;5081343;28;20428;-84
2024/01/08 06:35:25;;;;;;;;;;;;;;;;;;5077120;28;19912;-84
2024/01/08 06:37:51;;;;;;;;;;;;;;;;;;5081188;28;19959;-85
2024/01/08 06:40:17;;;;;;;;;;;;;;;;;;5068121;28;19917;-85
2024/01/08 06:42:43;;;;;;;;;;;;;;;;;;5077801;28;20325;-85
2024/01/08 06:45:08;;;;;;;;;;;;;;;;;;5070973;28;19935;-86
2024/01/08 06:47:34;;;;;;;;;;;;;;;;;;5069916;28;20022;-88
2024/01/08 06:50:00;;;;;;;;;;;;;;;;;;5071798;28;19916;-85
2024/01/08 06:52:26;;;;;;;;;;;;;;;;;;5070994;28;19916;-85
2024/01/08 06:54:52;;;;;;;;;;;;;;;;;;5086488;28;20274;-84
2024/01/08 06:57:18;;;;;;;;;;;;;;;;;;5086157;28;19912;-85
2024/01/08 06:59:44;;;;;;;;;;;;;;;;;;5077948;28;20508;-84
2024/01/08 07:02:09;;;;;;;;;;;;;;;;;;5083214;28;20363;-85
2024/01/08 07:04:35;;;;;;;;;;;;;;;;;;5071278;28;20421;-85
2024/01/08 07:07:01;;;;;;;;;;;;;;;;;;5090665;28;20285;-85
2024/01/08 07:09:27;;;;;;;;;;;;;;;;;;5087190;28;19966;-85
2024/01/08 07:11:53;;;;;;;;;;;;;;;;;;5090997;28;19908;-84
2024/01/08 07:14:19;;;;;;;;;;;;;;;;;;5091317;28;19931;-86
2024/01/08 07:16:44;;;;;;;;;;;;;;;;;;5072895;28;19924;-86
2024/01/08 07:19:10;;;;;;;;;;;;;;;;;;5083756;28;20414;-86
2024/01/08 07:21:36;;;;;;;;;;;;;;;;;;5084944;28;20321;-86
2024/01/08 07:24:03;;;;;;;;;;;;;;;;;;5083136;28;20015;-86
2024/01/08 07:26:28;;;;;;;;;;;;;;;;;;5090757;28;20359;-86
2024/01/08 07:28:54;;;;;;;;;;;;;;;;;;5090666;28;19995;-86
2024/01/08 07:31:20;;;;;;;;;;;;;;;;;;5089633;28;20455;-85
2024/01/08 07:33:46;;;;;;;;;;;;;;;;;;5083090;28;20508;-86
2024/01/08 07:36:13;;;;;;;;;;;;;;;;;;5085857;28;19979;-87
2024/01/08 07:38:39;;;;;;;;;;;;;;;;;;5080902;28;19959;-85
2024/01/08 07:41:07;;;;;;;;;;;;;;;;;;5071657;28;19936;-85
2024/01/08 07:43:33;;;;;;;;;;;;;;;;;;5070514;28;19913;-85
2024/01/08 07:45:58;;;;;;;;;;;;;;;;;;5076870;28;19916;-85
2024/01/08 07:48:24;;;;;;;;;;;;;;;;;;5075805;28;19916;-85
2024/01/08 07:50:50;;;;;;;;;;;;;;;;;;5072852;28;19920;-85
2024/01/08 07:53:16;;;;;;;;;;;;;;;;;;5078040;28;19917;-85
2024/01/08 07:55:42;;;;;;;;;;;;;;;;;;5080319;28;19954;-86
2024/01/08 07:58:09;;;;;;;;;;;;;;;;;;5079155;28;19908;-83
2024/01/08 08:00:35;;;;;;;;;;;;;;;;;;5086498;28;19913;-84
2024/01/08 08:03:01;;;;;;;;;;;;;;;;;;5089931;28;20510;-84
2024/01/08 08:05:27;;;;;;;;;;;;;;;;;;5070261;28;19944;-85
2024/01/08 08:07:53;;;;;;;;;;;;;;;;;;5071719;28;19935;-85
2024/01/08 08:10:18;;;;;;;;;;;;;;;;;;5070098;28;19984;-85
2024/01/08 08:12:44;;;;;;;;;;;;;;;;;;5069953;28;19912;-84
2024/01/08 08:15:10;;;;;;;;;;;;;;;;;;5069856;28;19920;-85
2024/01/08 08:17:36;;;;;;;;;;;;;;;;;;5069926;28;20286;-85
2024/01/08 08:20:05;;;;;;;;;;;;;;;;;;5083570;28;19915;-85
2024/01/08 08:22:31;;;;;;;;;;;;;;;;;;5083430;28;19912;-85
2024/01/08 08:24:57;;;;;;;;;;;;;;;;;;5077230;28;19927;-84
2024/01/08 08:27:23;;;;;;;;;;;;;;;;;;5089698;28;19912;-84
2024/01/08 08:29:49;;;;;;;;;;;;;;;;;;5076631;28;20389;-84
2024/01/08 08:32:15;;;;;;;;;;;;;;;;;;5087584;28;20286;-84
2024/01/08 08:34:41;;;;;;;;;;;;;;;;;;5084818;28;20020;-84
2024/01/08 08:37:10;;;;;;;;;;;;;;;;;;5086349;28;19908;-84
2024/01/08 08:39:36;;;;;;;;;;;;;;;;;;5077198;28;19916;-84
2024/01/08 08:42:02;;;;;;;;;;;;;;;;;;5088301;28;20195;-84
2024/01/08 08:44:28;;;;;;;;;;;;;;;;;;5076465;28;19983;-84
2024/01/08 08:46:54;;;;;;;;;;;;;;;;;;5072193;28;19925;-85
2024/01/08 08:49:20;;;;;;;;;;;;;;;;;;5073183;28;19953;-85
2024/01/08 08:51:46;;;;;;;;;;;;;;;;;;5074790;28;19920;-86
2024/01/08 08:54:12;;;;;;;;;;;;;;;;;;5082436;28;20330;-85
2024/01/08 08:56:38;;;;;;;;;;;;;;;;;;5088287;28;20064;-82
2024/01/08 08:59:10;;;;;;;;;;;;;;;;;;5089009;28;19977;-85
2024/01/08 09:01:36;;;;;;;;;;;;;;;;;;5078561;28;19916;-88
2024/01/08 09:04:02;;;;;;;;;;;;;;;;;;5071091;28;19943;-85
2024/01/08 09:06:30;;;;;;;;;;;;;;;;;;5075476;28;20279;-87
2024/01/08 09:08:56;;;;;;;;;;;;;;;;;;5076103;28;19959;-86
2024/01/08 09:11:22;;;;;;;;;;;;;;;;;;5076906;28;19948;-86
2024/01/08 09:13:48;;;;;;;;;;;;;;;;;;5077874;28;19916;-85
2024/01/08 09:16:16;;;;;;;;;;;;;;;;;;5077759;28;20462;-86
2024/01/08 09:18:42;;;;;;;;;;;;;;;;;;5077588;28;19931;-84
2024/01/08 09:21:08;;;;;;;;;;;;;;;;;;5077367;28;19916;-85
2024/01/08 09:23:34;;;;;;;;;;;;;;;;;;5077558;28;19928;-85
2024/01/08 09:26:00;;;;;;;;;;;;;;;;;;5077433;28;19963;-85
2024/01/08 09:28:27;;;;;;;;;;;;;;;;;;5077824;28;21531;-85
2024/01/08 09:30:54;;;;;;;;;;;;;;;;;;5077347;28;19917;-85
2024/01/08 09:33:20;;;;;;;;;;;;;;;;;;5077514;28;19970;-84
2024/01/08 09:35:45;;;;;;;;;;;;;;;;;;5075900;28;19917;-85
2024/01/08 09:38:11;;;;;;;;;;;;;;;;;;5077215;28;19913;-84
2024/01/08 09:40:38;;;;;;;;;;;;;;;;;;5077431;28;20419;-84
2024/01/08 09:43:03;;;;;;;;;;;;;;;;;;5077226;28;19916;-84
2024/01/08 09:45:29;;;;;;;;;;;;;;;;;;5076938;28;20018;-85
2024/01/08 09:47:55;;;;;;;;;;;;;;;;;;5077533;28;19928;-85
2024/01/08 09:50:21;;;;;;;;;;;;;;;;;;5077543;28;19908;-84
2024/01/08 09:52:47;;;;;;;;;;;;;;;;;;5076911;28;19916;-84
2024/01/08 09:55:13;;;;;;;;;;;;;;;;;;5077641;28;19966;-84
2024/01/08 09:57:38;;;;;;;;;;;;;;;;;;5077671;28;19981;-84
2024/01/08 10:00:05;;;;;;;;;;;;;;;;;;5077021;28;19912;-84
2024/01/08 10:02:31;;;;;;;;;;;;;;;;;;5077705;28;19944;-84
2024/01/08 10:04:57;;;;;;;;;;;;;;;;;;5076632;28;20439;-84
2024/01/08 10:07:23;;;;;;;;;;;;;;;;;;5078579;28;20274;-84
2024/01/08 10:09:50;;;;;;;;;;;;;;;;;;5081121;28;20007;-88
2024/01/08 10:12:16;;;;;;;;;;;;;;;;;;5081702;28;19920;-86
2024/01/08 10:14:42;;;;;;;;;;;;;;;;;;5075328;28;20345;-87
2024/01/08 10:17:08;;;;;;;;;;;;;;;;;;5087793;28;20282;-88
2024/01/08 10:19:33;;;;;;;;;;;;;;;;;;5078250;28;20326;-87
2024/01/08 10:21:59;;;;;;;;;;;;;;;;;;5092203;28;20321;-87
2024/01/08 10:24:25;;;;;;;;;;;;;;;;;;5076810;28;19959;-87
2024/01/08 10:26:51;;;;;;;;;;;;;;;;;;5091671;28;19919;-86
2024/01/08 10:29:17;;;;;;;;;;;;;;;;;;5075949;28;19912;-86
2024/01/08 10:31:43;;;;;;;;;;;;;;;;;;5071647;28;19908;-86
2024/01/08 10:34:09;;;;;;;;;;;;;;;;;;5087146;28;19946;-86
2024/01/08 10:36:34;;;;;;;;;;;;;;;;;;5081771;28;20359;-87
2024/01/08 10:39:00;;;;;;;;;;;;;;;;;;5071620;28;19943;-87
2024/01/08 10:41:26;;;;;;;;;;;;;;;;;;5070466;28;19919;-86
2024/01/08 10:43:52;;;;;;;;;;;;;;;;;;5085640;28;19990;-86
2024/01/08 10:46:18;;;;;;;;;;;;;;;;;;5092001;28;19958;-85
2024/01/08 10:48:44;;;;;;;;;;;;;;;;;;5089442;28;19962;-86
2024/01/08 10:51:11;;;;;;;;;;;;;;;;;;5071458;28;19923;-86
2024/01/08 10:53:37;;;;;;;;;;;;;;;;;;5089444;28;19919;-87
2024/01/08 10:56:02;;;;;;;;;;;;;;;;;;5082421;28;20337;-86
2024/01/08 10:58:28;;;;;;;;;;;;;;;;;;5087463;28;20396;-86
2024/01/08 11:00:55;;;;;;;;;;;;;;;;;;5092594;28;20290;-87
2024/01/08 11:03:21;;;;;;;;;;;;;;;;;;5077212;28;19963;-86
2024/01/08 11:05:47;;;;;;;;;;;;;;;;;;5081196;28;19987;-85
2024/01/08 11:08:13;;;;;;;;;;;;;;;;;;5071349;28;19919;-86
2024/01/08 11:10:39;;;;;;;;;;;;;;;;;;5089885;28;19919;-86
2024/01/08 11:13:05;;;;;;;;;;;;;;;;;;5088794;28;19908;-86
2024/01/08 11:15:31;;;;;;;;;;;;;;;;;;5074114;28;19919;-85
2024/01/08 11:17:58;;;;;;;;;;;;;;;;;;5074889;28;19909;-86
2024/01/08 11:20:24;;;;;;;;;;;;;;;;;;5080840;28;19908;-87
2024/01/08 11:22:50;;;;;;;;;;;;;;;;;;5090872;28;19927;-87
2024/01/08 11:25:16;;;;;;;;;;;;;;;;;;5091496;28;20039;-87
2024/01/08 11:27:42;;;;;;;;;;;;;;;;;;5087376;28;20615;-87
2024/01/08 11:30:08;;;;;;;;;;;;;;;;;;5080299;28;19999;-87
2024/01/08 11:32:34;;;;;;;;;;;;;;;;;;5087963;28;19916;-87
2024/01/08 11:35:00;;;;;;;;;;;;;;;;;;5070723;28;20382;-88
2024/01/08 11:37:26;;;;;;;;;;;;;;;;;;5087348;28;19912;-87
2024/01/08 11:39:52;;;;;;;;;;;;;;;;;;5091382;28;20003;-88
2024/01/08 11:42:21;;;;;;;;;;;;;;;;;;5074275;28;20003;-87
2024/01/08 11:44:47;;;;;;;;;;;;;;;;;;5088120;28;19919;-87
2024/01/08 11:47:13;;;;;;;;;;;;;;;;;;5090350;28;19986;-87
2024/01/08 11:49:38;;;;;;;;;;;;;;;;;;5089145;28;19908;-87
2024/01/08 11:52:05;;;;;;;;;;;;;;;;;;5073423;28;19913;-86
2024/01/08 11:54:31;;;;;;;;;;;;;;;;;;5080730;28;19930;-86
2024/01/08 11:56:57;;;;;;;;;;;;;;;;;;5086773;28;19920;-86
2024/01/08 11:59:23;;;;;;;;;;;;;;;;;;5069793;28;19912;-86
2024/01/08 12:01:48;;;;;;;;;;;;;;;;;;5089445;28;20255;-85
2024/01/08 12:04:14;;;;;;;;;;;;;;;;;;5088685;28;20340;-86
2024/01/08 12:06:40;;;;;;;;;;;;;;;;;;5089594;28;20436;-86
2024/01/08 12:09:06;;;;;;;;;;;;;;;;;;5089981;28;19908;-86
2024/01/08 12:11:32;;;;;;;;;;;;;;;;;;5086882;28;19908;-86
2024/01/08 12:13:58;;;;;;;;;;;;;;;;;;5069630;28;20011;-85
2024/01/08 12:16:24;;;;;;;;;;;;;;;;;;5074182;28;19908;-86
2024/01/08 12:18:50;;;;;;;;;;;;;;;;;;5089765;28;19912;-86
2024/01/08 12:21:16;;;;;;;;;;;;;;;;;;5090130;28;19969;-86
2024/01/08 12:23:42;;;;;;;;;;;;;;;;;;5088069;28;19927;-86
2024/01/08 12:26:07;;;;;;;;;;;;;;;;;;5089979;28;19913;-86
2024/01/08 12:28:34;;;;;;;;;;;;;;;;;;5079757;28;19920;-86
2024/01/08 12:31:01;;;;;;;;;;;;;;;;;;5069299;28;20567;-84
2024/01/08 12:33:26;;;;;;;;;;;;;;;;;;5077096;28;19911;-85
2024/01/08 12:35:53;;;;;;;;;;;;;;;;;;5072044;28;20329;-86
2024/01/08 12:38:19;;;;;;;;;;;;;;;;;;5069383;28;19912;-85
2024/01/08 12:40:44;;;;;;;;;;;;;;;;;;5072411;28;19953;-85
2024/01/08 12:43:10;;;;;;;;;;;;;;;;;;5089077;28;19908;-85
2024/01/08 12:45:37;;;;;;;;;;;;;;;;;;5085470;28;19967;-86
2024/01/08 12:48:02;;;;;;;;;;;;;;;;;;5067877;28;19969;-85
2024/01/08 12:50:28;;;;;;;;;;;;;;;;;;5069522;28;19991;-86
2024/01/08 12:52:54;;;;;;;;;;;;;;;;;;5089069;28;19908;-86
2024/01/08 12:55:20;;;;;;;;;;;;;;;;;;5089383;28;19908;-85
2024/01/08 12:57:46;;;;;;;;;;;;;;;;;;5089733;28;20439;-86
2024/01/08 13:00:13;;;;;;;;;;;;;;;;;;5089131;28;19944;-85
2024/01/08 13:02:39;;;;;;;;;;;;;;;;;;5078741;28;19987;-86
2024/01/08 13:05:05;;;;;;;;;;;;;;;;;;5067324;28;20011;-85
2024/01/08 13:07:31;;;;;;;;;;;;;;;;;;5069676;28;19962;-85
2024/01/08 13:09:57;;;;;;;;;;;;;;;;;;5088098;28;19947;-85
2024/01/08 13:12:22;;;;;;;;;;;;;;;;;;5089046;28;20367;-86
2024/01/08 13:14:48;;;;;;;;;;;;;;;;;;5076388;28;19912;-86
2024/01/08 13:17:16;;;;;;;;;;;;;;;;;;5068737;28;20003;-86
2024/01/08 13:19:41;;;;;;;;;;;;;;;;;;5072272;28;19943;-87
2024/01/08 13:22:07;;;;;;;;;;;;;;;;;;5088617;28;20345;-86
2024/01/08 13:24:34;;;;;;;;;;;;;;;;;;5074419;28;20405;-88
2024/01/08 13:27:00;;;;;;;;;;;;;;;;;;5088663;28;20363;-86
2024/01/08 13:29:26;;;;;;;;;;;;;;;;;;5076633;28;19919;-86
2024/01/08 13:31:52;;;;;;;;;;;;;;;;;;5088761;28;20003;-87
2024/01/08 13:34:18;;;;;;;;;;;;;;;;;;5076286;28;19908;-86
2024/01/08 13:36:44;;;;;;;;;;;;;;;;;;5088551;28;20420;-87
2024/01/08 13:39:10;;;;;;;;;;;;;;;;;;5087754;28;19994;-88
2024/01/08 13:41:37;;;;;;;;;;;;;;;;;;5080208;28;19912;-88
2024/01/08 13:44:03;;;;;;;;;;;;;;;;;;5087374;28;19919;-86
2024/01/08 13:46:29;;;;;;;;;;;;;;;;;;5088853;28;19916;-87
2024/01/08 13:48:55;;;;;;;;;;;;;;;;;;5089156;28;20374;-87
2024/01/08 13:51:21;;;;;;;;;;;;;;;;;;5089123;28;19915;-88
2024/01/08 13:53:47;;;;;;;;;;;;;;;;;;5074890;28;20320;-87
2024/01/08 13:56:13;;;;;;;;;;;;;;;;;;5073011;28;19962;-87
2024/01/08 13:58:39;;;;;;;;;;;;;;;;;;5089915;28;20427;-88
2024/01/08 14:01:05;;;;;;;;;;;;;;;;;;5093286;28;19916;-88
2024/01/08 14:03:31;;;;;;;;;;;;;;;;;;5075768;28;20032;-87
2024/01/08 14:05:57;;;;;;;;;;;;;;;;;;5074063;28;19913;-87
2024/01/08 14:08:22;;;;;;;;;;;;;;;;;;5074483;28;19916;-87
2024/01/08 14:10:50;;;;;;;;;;;;;;;;;;5093017;28;19915;-86
2024/01/08 14:13:15;;;;;;;;;;;;;;;;;;5081056;28;19916;-88
2024/01/08 14:15:41;;;;;;;;;;;;;;;;;;5083453;28;19908;-89
2024/01/08 14:18:07;;;;;;;;;;;;;;;;;;5092896;28;19909;-87
2024/01/08 14:20:33;;;;;;;;;;;;;;;;;;5092226;28;20032;-88
2024/01/08 14:22:59;;;;;;;;;;;;;;;;;;5093061;28;19997;-87
2024/01/08 14:25:25;;;;;;;;;;;;;;;;;;5096170;28;20363;-89
2024/01/08 14:27:51;;;;;;;;;;;;;;;;;;5101539;28;19912;-88
2024/01/08 14:30:17;;;;;;;;;;;;;;;;;;5104230;28;19912;-87
2024/01/08 14:32:45;;;;;;;;;;;;;;;;;;5089378;28;19938;-86
2024/01/08 14:35:10;;;;;;;;;;;;;;;;;;5104777;28;19909;-88
2024/01/08 14:37:36;;;;;;;;;;;;;;;;;;5100409;28;19980;-87
2024/01/08 14:40:02;;;;;;;;;;;;;;;;;;5082217;28;19912;-87
2024/01/08 14:42:28;;;;;;;;;;;;;;;;;;5083754;28;20363;-86
2024/01/08 14:44:54;;;;;;;;;;;;;;;;;;5104056;28;19923;-88
2024/01/08 14:47:21;;;;;;;;;;;;;;;;;;5101306;28;19908;-87
2024/01/08 14:49:47;;;;;;;;;;;;;;;;;;5099934;28;19923;-88
2024/01/08 14:52:13;;;;;;;;;;;;;;;;;;5098648;28;19909;-86
2024/01/08 14:54:38;;;;;;;;;;;;;;;;;;5091775;28;20370;-87
2024/01/08 14:57:06;;;;;;;;;;;;;;;;;;5081008;28;19916;-81
2024/01/08 14:59:33;;;;;;;;;;;;;;;;;;5089726;28;19912;-81
2024/01/08 15:01:59;;;;;;;;;;;;;;;;;;5090485;28;20019;-77
2024/01/08 15:04:25;;;;;;;;;;;;;;;;;;5080476;28;20003;-77
2024/01/08 15:06:51;;;;;;;;;;;;;;;;;;5075305;28;19912;-81
2024/01/08 15:09:17;;;;;;;;;;;;;;;;;;5091418;28;19915;-83
2024/01/08 15:11:43;;;;;;;;;;;;;;;;;;5086113;28;20386;-82
2024/01/08 15:14:09;;;;;;;;;;;;;;;;;;5089415;28;19916;-86
2024/01/08 15:16:34;;;;;;;;;;;;;;;;;;5090978;28;19980;-78
2024/01/08 15:19:00;;;;;;;;;;;;;;;;;;5088478;28;20428;-82
2024/01/08 15:21:26;;;;;;;;;;;;;;;;;;5086307;28;19920;-81
2024/01/08 15:23:52;;;;;;;;;;;;;;;;;;5079644;28;19920;-81
2024/01/08 15:26:18;;;;;;;;;;;;;;;;;;5085296;28;19916;-82
2024/01/08 15:28:47;;;;;;;;;;;;;;;;;;5092122;28;19915;-86
2024/01/08 15:31:13;;;;;;;;;;;;;;;;;;5086852;28;19916;-84
2024/01/08 15:33:39;;;;;;;;;;;;;;;;;;5086939;28;19912;-78
2024/01/08 15:36:05;;;;;;;;;;;;;;;;;;5070868;28;20091;-85
2024/01/08 15:38:31;;;;;;;;;;;;;;;;;;5075751;28;19908;-80
2024/01/08 15:40:57;;;;;;;;;;;;;;;;;;5074786;28;19916;-77
2024/01/08 15:43:23;;;;;;;;;;;;;;;;;;5089179;28;19912;-85
2024/01/08 15:45:49;;;;;;;;;;;;;;;;;;5090132;28;19950;-88
2024/01/08 15:48:15;;;;;;;;;;;;;;;;;;5079013;28;19908;-82
2024/01/08 15:50:40;;;;;;;;;;;;;;;;;;5076530;28;19918;-83
2024/01/08 15:53:06;;;;;;;;;;;;;;;;;;5090550;28;20282;-81
2024/01/08 15:55:32;;;;;;;;;;;;;;;;;;5090037;28;20309;-81
2024/01/08 15:57:59;;;;;;;;;;;;;;;;;;5089602;28;19938;-81
2024/01/08 16:00:24;;;;;;;;;;;;;;;;;;5089686;28;20410;-81
2024/01/08 16:02:50;;;;;;;;;;;;;;;;;;5089892;28;19921;-83
2024/01/08 16:05:17;;;;;;;;;;;;;;;;;;5090115;28;20006;-83
2024/01/08 16:07:43;;;;;;;;;;;;;;;;;;5088861;28;19916;-82
2024/01/08 16:10:08;;;;;;;;;;;;;;;;;;5089879;28;20297;-83
2024/01/08 16:12:34;;;;;;;;;;;;;;;;;;5083977;28;19954;-83
2024/01/08 16:15:01;;;;;;;;;;;;;;;;;;5079843;28;20358;-82
2024/01/08 16:17:28;;;;;;;;;;;;;;;;;;5090440;28;19908;-83
2024/01/08 16:19:54;;;;;;;;;;;;;;;;;;5088102;28;19915;-83
2024/01/08 16:22:20;;;;;;;;;;;;;;;;;;5087665;28;19919;-82
2024/01/08 16:24:46;;;;;;;;;;;;;;;;;;5086677;28;20282;-82
2024/01/08 16:27:12;;;;;;;;;;;;;;;;;;5089862;28;20287;-83
2024/01/08 16:29:38;;;;;;;;;;;;;;;;;;5083106;28;20376;-82
2024/01/08 16:32:03;;;;;;;;;;;;;;;;;;5089382;28;20465;-83
2024/01/08 16:34:29;;;;;;;;;;;;;;;;;;5087121;28;19920;-83
2024/01/08 16:36:55;;;;;;;;;;;;;;;;;;5088047;28;19953;-83